Detall de PIREP

Printer-friendly versionPDF version

[2015/02/22 15:16:00]
Flight IATA:CT2105
Pilot Number:012
Company ICAO:CAT
Aircraft Type:DC85/A
PAX:0
Aircraft Registration:CARGO
Departing Airport: LEBB
Destination Airport: LEVC
Alternate Airport:LEPA
Online: VATSIM
Route:PPN G23 GRAUS A34 SAURA
Flight Level:F200
No Slew and time accel
No pause
Crash detect
Detect pilot in Cockpit between each 30 and 45 minutes
15:16 Zero fuel Weight: 187231 Lbs, Fuel Weight: 29041 Lbs
15:16 VATSIM:LEBB 221500Z 00000KT 8000 SCT030 BKN040 10/08 Q1016 NOSIG
15:16 VATSIM:LEVC 221500Z 33015G26KT 290V020 9999 FEW025 18/M03 Q1009 NOSIG
15:17 Parking Brakes off
15:21 Take-off
15:21 Take off Weight: 215542 Lbs
15:21 Wind: 000º @ 000 Knots Heading: 296º
15:21 POS N43º 18´ 10´´ W002º 54´ 54´´
15:21 Gear Up: 170 Knots
15:21 Flaps:2 at 170 Knots
15:21 Flaps:1 at 230 Knots
15:24 Flaps:0 at 181 Knots
15:27 TOC
15:27 Fuel Weight: 25648 Lb
15:36 Wind:347º@057 Knots Heading: 149º Ground Speed: 483 Knots Altitude 20013 ft
15:51 Wind:000º@068 Knots Heading: 198º Ground Speed: 501 Knots Altitude 19911 ft
15:58 TOD
15:58 Fuel Weight: 18187 Lb
16:06 Wind:327º@028 Knots Heading: 199º Ground Speed: 361 Knots Altitude 9140 ft
16:13 Flaps:1 at 225 Knots
16:14 Flaps:2 at 177 Knots
16:15 Flaps:3 at 180 Knots
16:15 Gear Down: 187 Knots
16:15 Flaps:4 at 171 Knots
16:16 Flaps:5 at 144 Knots
16:20 TouchDown:Rate -360 ft/min Speed: 126 Knots
16:20 VATSIM:LEVC 221600Z 34017G27KT 310V010 9999 FEW025 18/M02 Q1010 NOSIG
16:21 Land
16:21 Wind:310º@015 Knots
16:21 Heading: 296º
16:21 Flight Duration: 01:00
16:21 Landing Weight: 202532 Lbs
16:21 POS N39º 29´ 22´´ W000º 28´ 56´´
16:23 Parking brakes on
16:23 Block to Block Duration: 01:06
16:23 Final Fuel: 15134 Lbls
16:23 Spent Fuel: 13906 Lbls
16:23 Flight Length: 375 NM
16:23 TOD Land Length: 105 NM

Exportar CSV

Powered by Drupal - Modified by Danger4k